GMMX Airport Information

Runway Information
Runway 10 Length 10170 ft width 148 ft
Elevation 1506 ft Threshold 918 ft Heading 96
Runway 28 Length 10170 ft Width 148 ft
Elevation 1545 ft Threshold 0 ft Heading 276
Airport Frequencies
Type APP Name MARRAKECH Frequency 119.7 MHZ
Type TWR Name MARRAKECH Frequency 118.7 MHZ
Airport Navaids
Type NDB Name Marrakech Frequency 267 KHZ
Type VOR-DME Name Marrakech Frequency 113300 KHZ
Airport Weather Information & NOTAM
ADDS - METARS form results

(1351 UTC 15 August 2020)
Data provider http://aviationweather.gov/metar/data/
 
METAR text: GMMX 151330Z 36005KT 290V080 9999 FEW030 32/14 Q1016 NOSIG
Conditions at: GMMX (MARRAKECH/MENARA, MA) observed 1330 UTC 15 August 2020
Temperature: 32.0°C (90°F)
Dewpoint: 14.0°C (57°F) [RH = 34%]
Pressure (altimeter): 30.00 inches Hg (1016.0 mb)
Winds: from the N (360 degrees) at 6 MPH (5 knots; 2.6 m/s)
Visibility: 6 or more miles (10+ km)
Ceiling: at least 12,000 feet AGL
Clouds: few clouds at 3000 feet AGL
Weather: no significant weather observed at this time

METAR text: GMMX 151300Z VRB04KT 9999 FEW030 31/15 Q1017 NOSIG
Conditions at: GMMX (MARRAKECH/MENARA, MA) observed 1300 UTC 15 August 2020
Temperature: 31.0°C (88°F)
Dewpoint: 15.0°C (59°F) [RH = 38%]
Pressure (altimeter): 30.03 inches Hg (1017.0 mb)
Winds: variable direction winds at 5 MPH (4 knots; 2.1 m/s)
Visibility: 6 or more miles (10+ km)
Ceiling: at least 12,000 feet AGL
Clouds: few clouds at 3000 feet AGL
Weather: no significant weather observed at this time

Forecast for: GMMX (MARRAKECH/MENARA, MA)
Text: TAF GMMX 151100Z 1512/1618 28005KT 8000 SCT033
Forecast period: 1200 UTC 15 August 2020 to 1800 UTC 16 August 2020
Forecast type: FROM: standard forecast or significant change
Winds: from the W (280 degrees) at 6 MPH (5 knots; 2.6 m/s)
Visibility: 5 miles (8 km)
Ceiling: at least 12,000 feet AGL
Clouds: scattered clouds at 3300 feet AGL
Weather: no significant weather forecast for this period
Text: TEMPO 1516/1522 36016KT
Forecast period: 1600 to 2200 UTC 15 August 2020
Forecast type: TEMPORARY: The following changes expected for less than half the time period
Winds: from the N (360 degrees) at 18 MPH (16 knots; 8.2 m/s)
Visibility: missing
Ceiling: unknown
Clouds: missing
Weather: no significant weather forecast for this period